METAR / TAF
Helsinki-Vantaa
HELSINKI/VANTAA
Metar
EFHK 180420Z 20010KT 3000 BR BKN003 12/12 Q1014 NOSIG

04:20 UTC

Wind: 200° 10kt

Visibility: 3000 m

Sky: BKN 300 ft

Temp: 12 deg C / 53.6 deg F

Dewpoint: 12 deg C / 53.6 deg F

Pressure: 1014 hPa

TAF
TAF EFHK 180226Z 1803/1903 22009KT 4000 BR OVC004 TEMPO 1803/1807 0400 FG VV002 BECMG 1807/1809 9000 NSW BKN015 TEMPO 1810/1812 4000 DZRA BKN010
Helsinki, Malmi
HELSINKI/MALMI
Turku
TURKU/ABO
Metar
EFTU 180420Z AUTO 22005KT 4600 BR SCT004/// OVC024/// 11/11 Q1013

04:20 UTC

Wind: 220° 5kt

Visibility: 4600 m

Sky: SCT 400 ft

Temp: 11 deg C / 51.8 deg F

Dewpoint: 11 deg C / 51.8 deg F

Pressure: 1013 hPa

TAF
TAF EFTU 180226Z 1803/1903 22006KT 8000 OVC005 TEMPO 1803/1805 2000 BR BKN002 TEMPO 1805/1810 4000 DZ BECMG 1810/1812 28010KT BKN015
Tampere, Pirkkala
TAMPERE/PIRKKALA
Metar
EFTP 180420Z AUTO 20007KT 7000 BKN002 OVC004 11/10 Q1012

04:20 UTC

Wind: 200° 7kt

Visibility: 7000 m

Sky: BKN 200 ft

Temp: 11 deg C / 51.8 deg F

Dewpoint: 10 deg C / 50 deg F

Pressure: 1012 hPa

TAF
TAF EFTP 180238Z 1803/1903 20007KT 9999 BKN007 TEMPO 1803/1808 1500 BR BKN003 BECMG 1808/1810 BKN015 TEMPO 1810/1814 BKN010 FEW015CB
Maarianhamina
MARIEHAMN/ALAND
Metar
EFMA 180420Z AUTO 22006KT CAVOK 12/11 Q1013

04:20 UTC

Wind: 220° 6kt

Visibility:

Sky:

Temp: 12 deg C / 53.6 deg F

Dewpoint: 11 deg C / 51.8 deg F

Pressure: 1013 hPa

TAF
TAF EFMA 180226Z 1803/1812 23007KT CAVOK PROB40 TEMPO 1803/1805 2000 BR
Pori
PORI (MIL/CIV)
Metar
EFPO 180420Z AUTO 24007KT 210V270 9999 OVC008/// 12/11 Q1011

04:20 UTC

Wind: 240° 7kt

Visibility: 9999 m

Sky: OVC 800 ft

Temp: 12 deg C / 53.6 deg F

Dewpoint: 11 deg C / 51.8 deg F

Pressure: 1011 hPa

Vaasa
VAASA
Metar
EFVA 180420Z AUTO VRB02KT 0900 R16/P2000 FG FEW006 08/08 Q1010

04:20 UTC

Wind: ° 2kt

Visibility: 900 m

Sky: FEW 600 ft

Temp: 8 deg C / 46.4 deg F

Dewpoint: 8 deg C / 46.4 deg F

Pressure: 1010 hPa

TAF
TAF AMD EFVA 180426Z 1804/1903 23005KT 3000 BR FEW006 TEMPO 1804/1806 0700 FG BKN006 BECMG 1806/1807 29010KT 9999 NSW
Kruunupyy
KRUUNUPYY
Metar
EFKK 180420Z AUTO 24005KT 210V280 9999 FEW005 BKN008 BKN011 09/08 Q1009

04:20 UTC

Wind: 240° 5kt

Visibility: 9999 m

Sky: FEW 500 ft

Temp: 9 deg C / 48.2 deg F

Dewpoint: 8 deg C / 46.4 deg F

Pressure: 1009 hPa

TAF
TAF EFKK 180226Z 1803/1812 22005KT 9999 BKN008 TEMPO 1803/1807 3000 BR BKN004 BECMG 1807/1809 FEW006 BKN050
Jyväskylä, Tikkakoski
JYVASKYLA (MIL/C
Metar
EFJY 180420Z AUTO VRB03KT 150V260 6000 OVC005 11/11 Q1010

04:20 UTC

Wind: ° 3kt

Visibility: 6000 m

Sky: OVC 500 ft

Temp: 11 deg C / 51.8 deg F

Dewpoint: 11 deg C / 51.8 deg F

Pressure: 1010 hPa

TAF
TAF EFJY 180238Z 1803/1903 24006KT 7000 OVC005 TEMPO 1803/1808 2000 BR OVC004 BECMG 1808/1810 9999 BKN015 TEMPO 1809/1814 BKN010 FEW015CB
Kuopio
KUOPIO (MIL/CIV)
Metar
EFKU 180420Z AUTO 22009KT 9999 FEW013 OVC028 12/10 Q1010

04:20 UTC

Wind: 220° 9kt

Visibility: 9999 m

Sky: FEW 1300 ft

Temp: 12 deg C / 53.6 deg F

Dewpoint: 10 deg C / 50 deg F

Pressure: 1010 hPa

TAF
TAF EFKU 180237Z 1803/1903 22008KT 9999 BKN011 TEMPO 1803/1808 4000 BR OVC008 BECMG 1808/1810 SCT013 TEMPO 1810/1815 BKN013
Joensuu
JOENSUU
Metar
EFJO 180420Z AUTO 21007KT 170V250 9999 OVC008 11/10 Q1011

04:20 UTC

Wind: 210° 7kt

Visibility: 9999 m

Sky: OVC 800 ft

Temp: 11 deg C / 51.8 deg F

Dewpoint: 10 deg C / 50 deg F

Pressure: 1011 hPa

TAF
TAF EFJO 180237Z 1803/1807 22008KT 9999 BKN007 TEMPO 1803/1807 2000 DZ BKN003
Halli
HALLI (FIN-AFB)
Metar
EFHA 180420Z AUTO 20007KT 4200 BR OVC004 11/11 Q1011

04:20 UTC

Wind: 200° 7kt

Visibility: 4200 m

Sky: OVC 400 ft

Temp: 11 deg C / 51.8 deg F

Dewpoint: 11 deg C / 51.8 deg F

Pressure: 1011 hPa

TAF
TAF EFHA 180238Z 1803/1812 24006KT 7000 OVC005 TEMPO 1803/1808 2000 BR OVC004 BECMG 1808/1810 9999 BKN015 TEMPO 1810/1812 SHRA BKN010 FEW015CB
Utti
UTTI (FIN-AFB)
Metar
EFUT 180420Z 18010KT 0300 FG VV002 10/10 Q1014

04:20 UTC

Wind: 180° 10kt

Visibility: 300 m

Sky: VV 200 ft

Temp: 10 deg C / 50 deg F

Dewpoint: 10 deg C / 50 deg F

Pressure: 1014 hPa

TAF
TAF AMD EFUT 180325Z 1803/1812 22005KT 0300 FG VV002 TEMPO 1803/1806 3000 BR BECMG 1806/1808 9999 NSW TEMPO 1808/1812 4000 RADZ BKN008
Mikkeli
MIKKELI
Metar
EFMI 180420Z AUTO 20005KT 160V240 6000 -RA OVC004 11/10 Q1013

04:20 UTC

Wind: 200° 5kt

Visibility: 6000 m

Sky: OVC 400 ft

Temp: 11 deg C / 51.8 deg F

Dewpoint: 10 deg C / 50 deg F

Pressure: 1013 hPa

Savonlinna
SAVONLINNA (AUT)
Metar
EFSA 180420Z AUTO 20005KT 160V250 6000 OVC005 10/10 Q1012

04:20 UTC

Wind: 200° 5kt

Visibility: 6000 m

Sky: OVC 500 ft

Temp: 10 deg C / 50 deg F

Dewpoint: 10 deg C / 50 deg F

Pressure: 1012 hPa

TAF
TAF EFSA 180237Z 1803/1812 21006KT 9999 BKN005 TEMPO 1803/1810 3000 DZRA BKN003 BECMG 1810/1812 BKN010 TEMPO 1810/1812 6000 RA
Lappeenranta
LAPPEENRANTA
Metar
EFLP 180420Z AUTO 19004KT 140V240 0200 R06/0750N R24/0800N FG VV002 10/10 Q1014

04:20 UTC

Wind: 190° 4kt

Visibility: 200 m

Sky: VV 200 ft

Temp: 10 deg C / 50 deg F

Dewpoint: 10 deg C / 50 deg F

Pressure: 1014 hPa

Oulu
OULU/ULEABORG
Metar
EFOU 180420Z AUTO 24007KT 9999 OVC006/// 08/07 Q1007

04:20 UTC

Wind: 240° 7kt

Visibility: 9999 m

Sky: OVC 600 ft

Temp: 8 deg C / 46.4 deg F

Dewpoint: 7 deg C / 44.6 deg F

Pressure: 1007 hPa

TAF
TAF EFOU 180234Z 1803/1824 24008KT 9999 BKN003 TEMPO 1803/1807 SCT003 BECMG 1807/1809 FEW020
Kemi
KEMI
Metar
EFKE 180420Z AUTO 19003KT 1900 BCBR BKN077 BKN104 04/04 Q1006

04:20 UTC

Wind: 190° 3kt

Visibility: 1900 m

Sky: BKN 7700 ft

Temp: 4 deg C / 39.2 deg F

Dewpoint: 4 deg C / 39.2 deg F

Pressure: 1006 hPa

Rovaniemi
ROVANIEMI (CIV/M
Metar
EFRO 180420Z 22011KT 0150 R03/0550D R21/0800U FG VV001 04/04 Q1004

04:20 UTC

Wind: 220° 11kt

Visibility: 150 m

Sky: VV 100 ft

Temp: 4 deg C / 39.2 deg F

Dewpoint: 4 deg C / 39.2 deg F

Pressure: 1004 hPa

TAF
TAF AMD EFRO 180306Z 1803/1903 24008KT 8000 BKN005 TEMPO 1803/1808 0200 FG VV001 TEMPO 1808/1903 BKN015
Enontekiö
ENONTEKIO
Metar
EFET 180420Z AUTO 19004KT 150V220 2200 -SHUP BR OVC002 01/01 Q1001

04:20 UTC

Wind: 190° 4kt

Visibility: 2200 m

Sky: OVC 200 ft

Temp: 1 deg C / 33.8 deg F

Dewpoint: 1 deg C / 33.8 deg F

Pressure: 1001 hPa

Ivalo
IVALO
Metar
EFIV 180420Z AUTO 24009KT 210V270 9999 OVC005 03/03 Q1002

04:20 UTC

Wind: 240° 9kt

Visibility: 9999 m

Sky: OVC 500 ft

Temp: 3 deg C / 37.4 deg F

Dewpoint: 3 deg C / 37.4 deg F

Pressure: 1002 hPa

Kittilä
KITTILA
Metar
EFKT 180420Z AUTO 22006KT 170V240 9999 OVC003 03/02 Q1002

04:20 UTC

Wind: 220° 6kt

Visibility: 9999 m

Sky: OVC 300 ft

Temp: 3 deg C / 37.4 deg F

Dewpoint: 2 deg C / 35.6 deg F

Pressure: 1002 hPa

Kuusamo
KUUSAMO
Metar
EFKS 180420Z AUTO 27011KT 9999 OVC006 04/03 Q1005

04:20 UTC

Wind: 270° 11kt

Visibility: 9999 m

Sky: OVC 600 ft

Temp: 4 deg C / 39.2 deg F

Dewpoint: 3 deg C / 37.4 deg F

Pressure: 1005 hPa

Kajaani
KAJAANI
Metar
EFKI 180420Z AUTO 27003KT 9999 BKN007 BKN027 08/08 Q1008

04:20 UTC

Wind: 270° 3kt

Visibility: 9999 m

Sky: BKN 700 ft

Temp: 8 deg C / 46.4 deg F

Dewpoint: 8 deg C / 46.4 deg F

Pressure: 1008 hPa

Varkaus
VARKAUS
Seinäjoki
SEINAJOKI-ILMAJO
Metar
EFSI 180420Z AUTO 24002KT 9999 FEW010 SCT015 BKN020 BKN190 11/09 Q1010

04:20 UTC

Wind: 240° 2kt

Visibility: 9999 m

Sky: FEW 1000 ft

Temp: 11 deg C / 51.8 deg F

Dewpoint: 9 deg C / 48.2 deg F

Pressure: 1010 hPa

Print Friendly, PDF & Email